Time;durP1;ratioP1;P1;durP2;ratioP2;P2;SDS_P1;SDS_P2;PMS_P1;PMS_P2;Temp;Humidity;BMP_temperature;BMP_pressure;BME280_temperature;BME280_humidity;BME280_pressure;Samples;Min_cycle;Max_cycle;Signal;HPM_P1;HPM_P2
2021/11/25 08:25:30;;;;;;;28.33;10.77;;;7.10;99.90;;;;;;3462613;23;20256;-75
2021/11/25 08:27:59;;;;;;;30.53;10.20;;;7.10;99.90;;;;;;4926956;29;20222;-73
2021/11/25 08:30:27;;;;;;;25.73;10.10;;;7.10;99.90;;;;;;4933278;29;20291;-75
2021/11/25 08:32:54;;;;;;;22.93;10.07;;;7.20;99.90;;;;;;4933407;29;20316;-73
2021/11/25 08:35:21;;;;;;;30.33;11.50;;;7.30;99.90;;;;;;4926860;29;20215;-67
2021/11/25 08:37:48;;;;;;;26.13;10.33;;;7.20;99.90;;;;;;4917139;29;20709;-69
2021/11/25 08:40:17;;;;;;;25.23;9.37;;;7.40;99.90;;;;;;4916183;29;20232;-69
2021/11/25 08:42:47;;;;;;;26.33;10.53;;;7.40;99.90;;;;;;4912406;29;20563;-65
2021/11/25 08:45:15;;;;;;;25.00;9.60;;;7.40;99.90;;;;;;4932191;29;20659;-78
2021/11/25 08:47:42;;;;;;;26.70;11.47;;;7.50;99.90;;;;;;4924691;29;20219;-71
2021/11/25 08:50:11;;;;;;;22.80;9.83;;;7.50;99.90;;;;;;4927636;29;20214;-74
2021/11/25 08:52:38;;;;;;;23.37;10.03;;;7.60;99.90;;;;;;4911300;29;20590;-71
2021/11/25 08:55:06;;;;;;;25.03;10.50;;;7.60;99.90;;;;;;4922484;29;20208;-70
2021/11/25 08:57:34;;;;;;;22.53;9.93;;;7.70;99.90;;;;;;4915601;29;20562;-69
2021/11/25 09:00:04;;;;;;;24.07;10.17;;;7.80;99.90;;;;;;4913284;29;20205;-76
2021/11/25 09:02:30;;;;;;;28.73;11.13;;;7.90;99.90;;;;;;4916406;29;20237;-75
2021/11/25 09:04:57;;;;;;;28.20;10.50;;;8.00;99.90;;;;;;4916557;29;20678;-74
2021/11/25 09:07:24;;;;;;;25.60;10.57;;;7.80;99.90;;;;;;4916215;29;20563;-71
2021/11/25 09:09:51;;;;;;;30.67;11.40;;;7.70;99.90;;;;;;4900318;29;20687;-71
2021/11/25 09:12:18;;;;;;;23.07;9.63;;;7.80;99.90;;;;;;4935451;29;20243;-76
2021/11/25 09:14:45;;;;;;;28.70;10.17;;;7.90;99.90;;;;;;4935537;29;20216;-71
2021/11/25 09:17:13;;;;;;;25.67;10.70;;;7.80;99.90;;;;;;4935406;29;20215;-67
2021/11/25 09:19:40;;;;;;;22.43;9.93;;;7.90;99.90;;;;;;4935614;29;20236;-73
2021/11/25 09:22:07;;;;;;;25.50;10.30;;;7.80;99.90;;;;;;4926113;29;20222;-68
2021/11/25 09:24:34;;;;;;;27.30;10.17;;;7.80;99.90;;;;;;4913794;29;20225;-71
2021/11/25 09:27:03;;;;;;;28.33;10.53;;;7.80;99.90;;;;;;4909432;29;20219;-69
2021/11/25 09:29:29;;;;;;;27.50;9.80;;;7.90;99.90;;;;;;4908664;29;20206;-70
2021/11/25 09:31:56;;;;;;;25.97;10.93;;;7.90;99.90;;;;;;4905946;29;20692;-73
2021/11/25 09:34:24;;;;;;;23.90;9.67;;;8.00;99.90;;;;;;4909946;29;20210;-73
2021/11/25 09:36:51;;;;;;;26.67;10.53;;;8.00;99.90;;;;;;4897113;29;20206;-77
2021/11/25 09:39:20;;;;;;;24.63;10.33;;;8.20;99.90;;;;;;4904530;29;20237;-68
2021/11/25 09:41:48;;;;;;;28.83;10.50;;;8.30;99.90;;;;;;4915633;29;20221;-77
2021/11/25 09:44:15;;;;;;;29.63;11.40;;;8.30;99.90;;;;;;4915850;29;20224;-65
2021/11/25 09:46:42;;;;;;;26.67;10.50;;;8.40;99.90;;;;;;4916111;29;20218;-74
2021/11/25 09:49:09;;;;;;;26.37;10.20;;;8.30;99.90;;;;;;4915339;29;20742;-73
2021/11/25 09:51:37;;;;;;;24.77;10.70;;;8.20;99.90;;;;;;4915562;29;20206;-65
2021/11/25 09:54:04;;;;;;;28.33;11.87;;;8.20;99.90;;;;;;4915858;29;20236;-70
2021/11/25 09:56:31;;;;;;;32.73;11.43;;;8.40;99.90;;;;;;4910671;29;20208;-78
2021/11/25 09:58:58;;;;;;;29.37;11.70;;;8.20;99.90;;;;;;4909604;29;20241;-76
2021/11/25 10:01:26;;;;;;;26.77;11.37;;;8.30;99.90;;;;;;4915744;29;20216;-69
2021/11/25 10:03:55;;;;;;;26.23;11.77;;;8.40;99.90;;;;;;4915283;29;20710;-73
2021/11/25 10:06:26;;;;;;;29.63;12.10;;;8.70;99.90;;;;;;4915025;29;20635;-70
2021/11/25 10:08:54;;;;;;;28.83;11.83;;;8.50;99.90;;;;;;4915660;29;20237;-67
2021/11/25 10:11:24;;;;;;;26.37;10.67;;;8.40;99.90;;;;;;4915437;29;20216;-68
2021/11/25 10:13:55;;;;;;;27.93;10.40;;;8.10;99.90;;;;;;4914649;29;20229;-73
2021/11/25 10:16:24;;;;;;;23.77;10.50;;;8.10;99.90;;;;;;4904796;29;20304;-71
2021/11/25 10:18:52;;;;;;;24.20;10.43;;;8.10;99.90;;;;;;4906836;29;20327;-71
2021/11/25 10:21:25;;;;;;;26.07;11.07;;;8.30;99.90;;;;;;4915024;29;20208;-79
2021/11/25 10:23:55;;;;;;;31.13;11.20;;;8.50;99.90;;;;;;4915248;29;20224;-77
2021/11/25 10:26:24;;;;;;;29.23;11.47;;;8.50;99.90;;;;;;4912757;29;20582;-75
2021/11/25 10:28:53;;;;;;;28.83;12.00;;;8.40;99.90;;;;;;4913119;29;20208;-75
2021/11/25 10:31:23;;;;;;;31.87;11.60;;;8.30;99.90;;;;;;4915535;29;20338;-79
2021/11/25 10:33:54;;;;;;;27.97;10.43;;;8.40;99.90;;;;;;4910932;29;20236;-75
2021/11/25 10:36:39;;;;;;;26.87;10.57;;;8.50;99.90;;;;;;4912410;29;20272;-65
2021/11/25 10:39:26;;;;;;;29.47;10.83;;;8.50;99.90;;;;;;4912737;29;20233;-70
2021/11/25 10:41:56;;;;;;;35.67;13.07;;;8.60;99.90;;;;;;4918623;29;20209;-79
2021/11/25 10:44:24;;;;;;;28.67;11.27;;;8.70;99.90;;;;;;4918784;29;20692;-78
2021/11/25 10:46:55;;;;;;;29.37;11.77;;;8.80;99.90;;;;;;4907205;29;20217;-78
2021/11/25 10:49:38;;;;;;;27.60;10.87;;;8.70;99.90;;;;;;4910710;29;20268;-80
2021/11/25 10:52:13;;;;;;;28.13;11.27;;;8.80;99.90;;;;;;4914867;29;20202;-80
2021/11/25 10:54:50;;;;;;;28.33;10.73;;;8.70;99.90;;;;;;4899642;29;20213;-69
2021/11/25 10:57:18;;;;;;;30.00;11.20;;;8.70;99.90;;;;;;4899776;29;20213;-70
2021/11/25 10:59:47;;;;;;;24.57;9.63;;;8.60;99.90;;;;;;4926553;29;20705;-71
2021/11/25 11:02:34;;;;;;;27.43;10.47;;;8.70;99.90;;;;;;4936276;29;20303;-72
2021/11/25 11:05:04;;;;;;;30.47;11.70;;;8.60;99.90;;;;;;4933166;29;20217;-69
2021/11/25 11:07:34;;;;;;;24.73;10.23;;;8.60;99.90;;;;;;4922902;29;20276;-70
2021/11/25 11:10:18;;;;;;;28.23;10.70;;;8.70;99.90;;;;;;4915929;29;20802;-70
2021/11/25 11:12:51;;;;;;;24.13;10.23;;;8.80;99.90;;;;;;4897869;29;20238;-68
2021/11/25 11:15:28;;;;;;;22.10;10.20;;;8.80;99.90;;;;;;4903143;29;20217;-70
2021/11/25 11:18:42;;;;;;;24.73;10.90;;;8.80;99.90;;;;;;4925617;29;20568;-71
2021/11/25 11:20:51;;;;;;;31.20;10.70;;;8.70;99.90;;;;;;4928787;29;20209;-70
2021/11/25 11:23:21;;;;;;;26.27;10.13;;;8.50;99.90;;;;;;4920444;29;20226;-69
2021/11/25 11:25:52;;;;;;;28.13;10.47;;;8.50;99.90;;;;;;4916022;29;20226;-70
2021/11/25 11:28:19;;;;;;;28.77;10.57;;;8.60;99.90;;;;;;4916416;29;20666;-70
2021/11/25 11:30:47;;;;;;;28.50;10.53;;;8.50;99.90;;;;;;4915635;29;20570;-71
2021/11/25 11:33:15;;;;;;;24.53;9.87;;;8.50;99.90;;;;;;4916314;29;20737;-70
2021/11/25 11:35:43;;;;;;;30.70;11.77;;;8.40;99.90;;;;;;4917001;29;20235;-73
2021/11/25 11:38:13;;;;;;;27.77;11.23;;;8.40;99.90;;;;;;4916786;29;20209;-70
2021/11/25 11:40:42;;;;;;;26.80;10.90;;;8.60;99.90;;;;;;4903266;29;20777;-73
2021/11/25 11:43:11;;;;;;;25.63;10.17;;;8.60;99.90;;;;;;4916799;29;20225;-71
2021/11/25 11:45:39;;;;;;;31.60;11.20;;;8.60;99.90;;;;;;4913784;29;20210;-73
2021/11/25 11:48:11;;;;;;;24.73;9.70;;;8.60;99.90;;;;;;4916618;29;20237;-71
2021/11/25 11:50:41;;;;;;;27.77;10.33;;;8.70;99.90;;;;;;4917224;29;20214;-72
2021/11/25 11:53:13;;;;;;;25.53;10.47;;;8.80;99.90;;;;;;4917265;29;20229;-72
2021/11/25 11:55:42;;;;;;;31.57;11.10;;;8.60;99.90;;;;;;4917454;29;20249;-73
2021/11/25 11:58:31;;;;;;;26.13;9.93;;;8.60;99.90;;;;;;4917226;29;20210;-71
2021/11/25 12:01:00;;;;;;;24.93;10.40;;;8.60;99.90;;;;;;4917685;29;20209;-72
2021/11/25 12:03:32;;;;;;;27.07;10.20;;;8.70;99.90;;;;;;4917218;29;20237;-73
2021/11/25 12:05:59;;;;;;;27.10;10.63;;;8.80;99.90;;;;;;4917166;29;20731;-70
2021/11/25 12:08:45;;;;;;;26.33;10.20;;;8.80;99.90;;;;;;4918175;29;20209;-71
2021/11/25 12:11:15;;;;;;;24.07;9.77;;;8.60;99.90;;;;;;4917671;29;20670;-72
2021/11/25 12:14:20;;;;;;;24.20;9.63;;;8.60;99.90;;;;;;4917708;29;20230;-72
2021/11/25 12:16:50;;;;;;;28.03;11.03;;;8.60;99.90;;;;;;4914931;29;20212;-72
2021/11/25 12:19:25;;;;;;;29.00;11.80;;;8.60;99.90;;;;;;4898922;29;20234;-72
2021/11/25 12:21:54;;;;;;;27.07;10.57;;;8.60;99.90;;;;;;4898564;29;20571;-71
2021/11/25 12:24:34;;;;;;;24.27;10.53;;;8.50;99.90;;;;;;4914131;29;20678;-71
2021/11/25 12:27:14;;;;;;;25.47;9.90;;;8.70;99.90;;;;;;4916896;29;20228;-68
2021/11/25 12:29:49;;;;;;;26.30;10.17;;;8.70;99.90;;;;;;4917291;29;20217;-67
2021/11/25 12:32:41;;;;;;;20.93;9.30;;;8.80;99.90;;;;;;4916303;29;20268;-70
2021/11/25 12:35:44;;;;;;;28.20;9.97;;;8.90;99.90;;;;;;4916886;29;20265;-71
2021/11/25 12:38:20;;;;;;;20.93;9.77;;;9.00;99.90;;;;;;4917108;29;20220;-73
2021/11/25 12:41:02;;;;;;;20.10;9.00;;;9.20;99.90;;;;;;4916604;29;20327;-72
2021/11/25 12:43:31;;;;;;;18.70;8.43;;;9.20;99.90;;;;;;4917095;29;20233;-73
2021/11/25 12:46:05;;;;;;;20.10;8.10;;;9.30;99.90;;;;;;4917040;29;20567;-72
2021/11/25 12:48:35;;;;;;;23.70;9.87;;;9.30;99.90;;;;;;4916642;29;20245;-70
2021/11/25 12:51:08;;;;;;;20.77;8.43;;;9.40;99.90;;;;;;4916975;29;20217;-71
2021/11/25 12:53:38;;;;;;;18.70;8.33;;;9.50;99.90;;;;;;4916954;29;20233;-70
2021/11/25 12:56:12;;;;;;;20.57;8.50;;;9.70;99.90;;;;;;4917109;29;20214;-69
2021/11/25 12:58:44;;;;;;;19.47;7.67;;;9.80;99.90;;;;;;4916835;29;20213;-71
2021/11/25 13:01:16;;;;;;;19.67;7.20;;;9.90;99.90;;;;;;4916923;29;20304;-69
2021/11/25 13:03:43;;;;;;;18.40;7.23;;;9.80;99.90;;;;;;4916738;29;20240;-71
2021/11/25 13:06:10;;;;;;;17.37;6.87;;;9.80;99.90;;;;;;4916744;29;20229;-70
2021/11/25 13:08:39;;;;;;;12.73;6.40;;;9.90;99.90;;;;;;4915680;29;20223;-70
2021/11/25 13:11:14;;;;;;;14.20;6.87;;;9.90;99.90;;;;;;4916815;29;20206;-70
2021/11/25 13:13:42;;;;;;;17.57;8.13;;;10.10;99.90;;;;;;4916431;29;20597;-67
2021/11/25 13:16:11;;;;;;;17.40;7.10;;;10.20;99.90;;;;;;4915520;29;20241;-66
2021/11/25 13:18:48;;;;;;;11.80;6.47;;;10.10;99.90;;;;;;4897319;29;20218;-71
2021/11/25 13:21:18;;;;;;;19.03;6.90;;;10.10;99.90;;;;;;4897565;29;20570;-72
2021/11/25 13:23:49;;;;;;;14.40;6.80;;;10.20;99.90;;;;;;4896709;29;20278;-71
2021/11/25 13:26:16;;;;;;;22.10;6.80;;;10.20;99.90;;;;;;4897374;29;20214;-70
2021/11/25 13:28:42;;;;;;;14.83;6.37;;;10.10;99.90;;;;;;4899955;29;20214;-71
2021/11/25 13:31:12;;;;;;;11.67;5.17;;;10.10;99.90;;;;;;4903399;29;20316;-70
2021/11/25 13:34:01;;;;;;;13.80;5.43;;;10.10;99.90;;;;;;4914501;29;20703;-68
2021/11/25 13:36:33;;;;;;;15.67;5.80;;;10.30;99.90;;;;;;4895793;29;20218;-69
2021/11/25 13:39:02;;;;;;;10.77;5.20;;;10.40;99.90;;;;;;4895945;29;20212;-71
2021/11/25 13:41:29;;;;;;;10.77;5.13;;;10.40;99.90;;;;;;4912796;29;20670;-72
2021/11/25 13:43:58;;;;;;;13.97;5.93;;;10.40;99.90;;;;;;4914442;29;20240;-73
2021/11/25 13:46:37;;;;;;;15.83;6.10;;;10.40;99.90;;;;;;4914432;29;20217;-70
2021/11/25 13:49:06;;;;;;;14.83;5.10;;;10.40;99.90;;;;;;4915210;29;20220;-69
2021/11/25 13:51:33;;;;;;;11.90;5.00;;;10.50;99.90;;;;;;4915105;29;20213;-69
2021/11/25 13:54:06;;;;;;;14.23;5.23;;;10.70;99.90;;;;;;4914635;29;20243;-73
2021/11/25 13:56:34;;;;;;;17.60;4.60;;;10.70;99.90;;;;;;4914359;29;20734;-69
2021/11/25 13:59:02;;;;;;;11.50;5.57;;;10.70;99.90;;;;;;4914773;29;20216;-73
2021/11/25 14:01:30;;;;;;;10.53;5.03;;;10.70;99.90;;;;;;4914305;29;20213;-71
2021/11/25 14:03:57;;;;;;;10.67;5.03;;;10.60;99.90;;;;;;4914006;29;20313;-71
2021/11/25 14:06:27;;;;;;;10.50;4.70;;;10.80;99.90;;;;;;4910984;29;20217;-71
2021/11/25 14:09:03;;;;;;;11.03;4.70;;;10.80;99.90;;;;;;4913957;29;20223;-70
2021/11/25 14:11:30;;;;;;;11.40;4.83;;;10.90;99.90;;;;;;4914516;29;20302;-72
2021/11/25 14:14:02;;;;;;;14.43;5.77;;;10.90;99.90;;;;;;4913965;29;20229;-69
2021/11/25 14:16:29;;;;;;;11.70;5.07;;;10.70;99.90;;;;;;4917483;29;20220;-72
2021/11/25 14:18:56;;;;;;;10.77;4.77;;;10.60;99.90;;;;;;4918508;29;20670;-78
2021/11/25 14:21:40;;;;;;;9.53;4.50;;;10.50;99.90;;;;;;4919497;29;20721;-70
2021/11/25 14:24:08;;;;;;;10.00;4.90;;;10.60;99.90;;;;;;4919874;29;20225;-72
2021/11/25 14:27:01;;;;;;;11.60;4.67;;;10.50;99.90;;;;;;4920072;29;20217;-72
2021/11/25 14:32:29;;;;;;;10.53;4.37;;;10.30;99.90;;;;;;4918274;29;20237;-72
2021/11/25 14:34:57;;;;;;;13.27;5.03;;;10.40;99.90;;;;;;4918744;29;20210;-72
2021/11/25 14:37:27;;;;;;;13.70;4.90;;;10.50;99.90;;;;;;4918275;29;20220;-72
2021/11/25 14:39:54;;;;;;;7.27;4.33;;;10.40;99.90;;;;;;4913635;29;20247;-70
2021/11/25 14:42:24;;;;;;;9.17;4.87;;;10.20;99.90;;;;;;4916582;29;20327;-71
2021/11/25 14:45:05;;;;;;;8.07;4.13;;;10.30;99.90;;;;;;4917546;29;20210;-73
2021/11/25 14:47:41;;;;;;;11.53;4.50;;;10.20;99.90;;;;;;4918052;29;20213;-70
2021/11/25 14:50:09;;;;;;;10.33;4.67;;;10.10;99.90;;;;;;4917991;29;20213;-69
2021/11/25 14:52:40;;;;;;;9.50;4.00;;;10.00;99.90;;;;;;4917904;29;20236;-75
2021/11/25 14:55:11;;;;;;;14.63;5.37;;;10.00;99.90;;;;;;4917845;29;20210;-70
2021/11/25 14:57:39;;;;;;;16.73;5.77;;;10.00;99.90;;;;;;4917041;29;20666;-70
2021/11/25 15:00:10;;;;;;;15.20;5.00;;;10.00;99.90;;;;;;4916912;29;20229;-69
2021/11/25 15:02:39;;;;;;;10.83;4.23;;;10.00;99.90;;;;;;4917910;29;20239;-71
2021/11/25 15:05:14;;;;;;;10.00;4.90;;;10.10;99.90;;;;;;4918195;29;20223;-69
2021/11/25 15:07:52;;;;;;;14.37;4.43;;;10.00;99.90;;;;;;4936224;29;20295;-69
2021/11/25 15:10:19;;;;;;;7.83;3.97;;;9.90;99.90;;;;;;4916427;29;20213;-71
2021/11/25 15:12:46;;;;;;;7.80;4.03;;;9.80;99.90;;;;;;4916890;29;20232;-72
2021/11/25 15:15:13;;;;;;;9.70;3.87;;;9.80;99.90;;;;;;4917100;29;20209;-69
2021/11/25 15:17:40;;;;;;;6.63;3.43;;;9.80;99.90;;;;;;4917511;29;20214;-69
2021/11/25 15:20:11;;;;;;;10.17;4.03;;;10.00;99.90;;;;;;4917378;29;20241;-69
2021/11/25 15:22:38;;;;;;;5.83;3.30;;;10.00;99.90;;;;;;4916699;29;20230;-69
2021/11/25 15:25:09;;;;;;;9.17;3.10;;;10.10;99.90;;;;;;4917066;29;20301;-68
2021/11/25 15:27:36;;;;;;;7.10;2.93;;;10.00;99.90;;;;;;4916775;29;20540;-70
2021/11/25 15:30:04;;;;;;;8.47;3.50;;;10.00;99.90;;;;;;4915560;29;20206;-69
2021/11/25 15:32:31;;;;;;;8.73;3.10;;;10.10;99.90;;;;;;4916778;29;20240;-68
2021/11/25 15:35:00;;;;;;;6.37;3.20;;;10.00;99.90;;;;;;4917333;29;20228;-69
2021/11/25 15:37:27;;;;;;;5.70;2.37;;;9.90;99.90;;;;;;4916038;29;20213;-69
2021/11/25 15:39:54;;;;;;;9.77;3.00;;;10.00;99.90;;;;;;4914718;29;20252;-69
2021/11/25 15:42:23;;;;;;;7.07;3.20;;;10.00;99.90;;;;;;4917406;29;20294;-71
2021/11/25 15:44:50;;;;;;;5.83;3.30;;;10.00;99.90;;;;;;4917730;29;20578;-71
2021/11/25 15:47:17;;;;;;;9.17;3.17;;;10.00;99.90;;;;;;4918062;29;20680;-71
2021/11/25 15:49:44;;;;;;;4.87;2.57;;;10.00;99.90;;;;;;4917785;29;20225;-71
2021/11/25 15:52:11;;;;;;;7.63;3.20;;;9.90;99.90;;;;;;4917730;29;20237;-71
2021/11/25 15:54:39;;;;;;;6.63;2.53;;;9.90;99.90;;;;;;4917601;29;20244;-70
2021/11/25 15:57:07;;;;;;;8.80;2.80;;;9.80;99.90;;;;;;4917343;29;20284;-71
2021/11/25 15:59:36;;;;;;;6.07;2.60;;;9.70;99.90;;;;;;4917593;29;20713;-71
2021/11/25 16:02:02;;;;;;;6.20;2.10;;;9.70;99.90;;;;;;4917574;29;20206;-70
2021/11/25 16:04:29;;;;;;;7.47;2.60;;;9.60;99.90;;;;;;4917601;29;20210;-70
2021/11/25 16:06:56;;;;;;;6.40;2.50;;;9.60;99.90;;;;;;4917852;29;20220;-70
2021/11/25 16:09:23;;;;;;;4.97;2.17;;;9.50;99.90;;;;;;4917260;29;20622;-70
2021/11/25 16:11:50;;;;;;;7.60;2.50;;;9.50;99.90;;;;;;4916565;29;20232;-70
2021/11/25 16:14:24;;;;;;;5.53;2.40;;;9.50;99.90;;;;;;4917407;29;20304;-71
2021/11/25 16:16:53;;;;;;;11.57;2.60;;;9.40;99.90;;;;;;4917453;29;20673;-72
2021/11/25 16:19:20;;;;;;;7.60;2.70;;;9.40;99.90;;;;;;4917368;29;20567;-71
2021/11/25 16:21:47;;;;;;;6.63;1.93;;;9.20;99.90;;;;;;4917755;29;20244;-71
2021/11/25 16:24:14;;;;;;;4.63;2.00;;;9.10;99.90;;;;;;4917833;29;20284;-71
2021/11/25 16:26:41;;;;;;;5.90;2.10;;;9.10;99.90;;;;;;4916940;29;20222;-71
2021/11/25 16:29:08;;;;;;;5.93;1.80;;;9.00;99.90;;;;;;4916909;29;20574;-72
2021/11/25 16:31:35;;;;;;;10.57;2.57;;;9.00;99.90;;;;;;4917327;29;20213;-71
2021/11/25 16:34:03;;;;;;;10.73;2.43;;;9.10;99.90;;;;;;4917623;29;20230;-72
2021/11/25 16:36:30;;;;;;;5.80;2.20;;;9.10;99.90;;;;;;4917503;29;20667;-71
2021/11/25 16:38:57;;;;;;;7.10;2.33;;;9.10;99.90;;;;;;4916316;29;20213;-71
2021/11/25 16:41:24;;;;;;;7.80;2.40;;;9.10;99.90;;;;;;4917430;29;20241;-71
2021/11/25 16:43:52;;;;;;;8.17;2.07;;;9.10;99.90;;;;;;4916533;29;20654;-73
2021/11/25 16:46:20;;;;;;;4.97;2.10;;;9.10;99.90;;;;;;4917139;29;20209;-72
2021/11/25 16:48:47;;;;;;;4.87;1.93;;;9.00;99.90;;;;;;4917212;29;20210;-71
2021/11/25 16:51:17;;;;;;;6.67;2.10;;;9.00;99.90;;;;;;4917129;29;20694;-71
2021/11/25 16:53:48;;;;;;;5.93;2.00;;;8.90;99.90;;;;;;4917327;29;20261;-71
2021/11/25 16:56:15;;;;;;;7.33;2.00;;;8.80;99.90;;;;;;4916874;29;20213;-72
2021/11/25 16:58:43;;;;;;;5.47;1.90;;;8.80;99.90;;;;;;4916261;29;20216;-71
2021/11/25 17:01:11;;;;;;;5.37;2.00;;;8.70;99.90;;;;;;4916697;29;20237;-71
2021/11/25 17:03:38;;;;;;;4.17;1.70;;;8.50;99.90;;;;;;4916907;29;20233;-71
2021/11/25 17:06:05;;;;;;;4.93;2.33;;;8.50;99.90;;;;;;4916650;29;20213;-71
2021/11/25 17:08:35;;;;;;;7.17;1.93;;;8.50;99.90;;;;;;4916232;29;20202;-71
2021/11/25 17:11:02;;;;;;;6.57;1.90;;;8.40;99.90;;;;;;4916334;29;20587;-71
2021/11/25 17:13:31;;;;;;;5.83;1.97;;;8.40;99.90;;;;;;4907416;29;20233;-71
2021/11/25 17:15:59;;;;;;;2.97;1.60;;;8.30;99.90;;;;;;4903856;29;20245;-71
2021/11/25 17:18:29;;;;;;;4.43;1.90;;;8.20;99.90;;;;;;4916028;29;20214;-70
2021/11/25 17:20:58;;;;;;;4.47;1.63;;;8.10;99.90;;;;;;4916617;29;20288;-71
2021/11/25 17:23:25;;;;;;;5.57;1.90;;;8.10;99.90;;;;;;4916431;29;20264;-71
2021/11/25 17:25:54;;;;;;;5.23;1.47;;;8.00;99.90;;;;;;4915982;29;20214;-71
2021/11/25 17:28:21;;;;;;;7.63;2.97;;;8.00;99.90;;;;;;4916138;29;20233;-71
2021/11/25 17:30:48;;;;;;;5.97;2.20;;;7.90;99.90;;;;;;4916364;29;20220;-71
2021/11/25 17:33:16;;;;;;;5.80;1.20;;;7.90;99.90;;;;;;4916290;29;20233;-71
2021/11/25 17:35:44;;;;;;;4.93;1.40;;;7.80;99.90;;;;;;4916538;29;20216;-71
2021/11/25 17:38:11;;;;;;;5.23;1.33;;;7.80;99.90;;;;;;4916064;29;20205;-71
2021/11/25 17:40:39;;;;;;;5.20;1.40;;;7.80;99.90;;;;;;4916352;29;20237;-71
2021/11/25 17:43:10;;;;;;;5.67;1.70;;;7.70;99.90;;;;;;4915672;29;20229;-71
2021/11/25 17:45:39;;;;;;;5.60;1.97;;;7.70;99.90;;;;;;4916250;29;20241;-71
2021/11/25 17:48:06;;;;;;;5.77;1.63;;;7.60;99.90;;;;;;4916061;29;20215;-71
2021/11/25 17:50:35;;;;;;;5.73;1.77;;;7.60;99.90;;;;;;4920035;29;20213;-71
2021/11/25 17:53:02;;;;;;;6.37;1.63;;;7.50;99.90;;;;;;4919953;29;20276;-71
2021/11/25 17:55:30;;;;;;;5.87;2.20;;;7.50;99.90;;;;;;4919624;29;20570;-71
2021/11/25 17:57:57;;;;;;;7.17;1.87;;;7.50;99.90;;;;;;4908552;29;20199;-70
2021/11/25 18:00:27;;;;;;;6.23;2.27;;;7.50;99.90;;;;;;4919651;29;20357;-71
2021/11/25 18:02:54;;;;;;;5.80;1.80;;;7.50;99.90;;;;;;4919158;29;20229;-71
2021/11/25 18:05:21;;;;;;;7.80;2.63;;;7.50;99.90;;;;;;4919920;29;20210;-71
2021/11/25 18:07:48;;;;;;;7.33;2.07;;;7.60;99.90;;;;;;4913607;29;20210;-70
2021/11/25 18:10:15;;;;;;;5.97;1.77;;;7.50;99.90;;;;;;4900827;29;20570;-70
2021/11/25 18:12:43;;;;;;;5.67;1.77;;;7.50;99.90;;;;;;4903494;29;20225;-70
2021/11/25 18:15:11;;;;;;;3.67;1.80;;;7.50;99.90;;;;;;4912699;29;20218;-71
2021/11/25 18:17:39;;;;;;;3.67;1.57;;;7.50;99.90;;;;;;4907592;29;20214;-70
2021/11/25 18:20:08;;;;;;;4.40;1.53;;;7.50;99.90;;;;;;4909128;29;20262;-70
2021/11/25 18:22:34;;;;;;;4.07;1.73;;;7.40;99.90;;;;;;4909007;29;20686;-70
2021/11/25 18:25:01;;;;;;;4.13;1.77;;;7.40;99.90;;;;;;4902343;29;20210;-70
2021/11/25 18:27:28;;;;;;;2.90;1.27;;;7.40;99.90;;;;;;4899992;29;20217;-70
2021/11/25 18:29:55;;;;;;;4.73;1.43;;;7.30;99.90;;;;;;4900742;29;20207;-70
2021/11/25 18:32:22;;;;;;;5.17;1.47;;;7.20;99.90;;;;;;4915302;29;20232;-70
2021/11/25 18:34:50;;;;;;;2.83;1.27;;;7.10;99.90;;;;;;4915829;29;20569;-70
2021/11/25 18:37:17;;;;;;;4.57;1.30;;;7.00;99.90;;;;;;4919278;29;20220;-71
2021/11/25 18:39:45;;;;;;;7.03;1.87;;;6.90;99.90;;;;;;4918691;29;20544;-70
2021/11/25 18:42:13;;;;;;;5.53;1.83;;;6.80;99.90;;;;;;4919091;29;20794;-70
2021/11/25 18:44:42;;;;;;;3.40;1.63;;;6.80;99.90;;;;;;4902013;29;20202;-70
2021/11/25 18:47:15;;;;;;;6.13;1.60;;;6.80;99.90;;;;;;4903563;29;20549;-70
2021/11/25 18:49:45;;;;;;;4.87;1.23;;;6.80;99.90;;;;;;4918905;29;20210;-70
2021/11/25 18:52:13;;;;;;;4.90;1.23;;;6.70;99.90;;;;;;4902204;29;20234;-70
2021/11/25 18:54:40;;;;;;;5.07;1.73;;;6.70;99.90;;;;;;4900492;29;20233;-70
2021/11/25 18:57:07;;;;;;;3.77;1.40;;;6.60;99.90;;;;;;4906265;29;20212;-70
2021/11/25 18:59:37;;;;;;;3.87;1.33;;;6.60;99.90;;;;;;4917493;29;20221;-70
2021/11/25 19:02:05;;;;;;;5.47;1.80;;;6.60;99.90;;;;;;4917154;29;20297;-71
2021/11/25 19:04:32;;;;;;;3.13;1.47;;;6.60;99.90;;;;;;4918776;29;20578;-71
2021/11/25 19:06:58;;;;;;;3.87;1.53;;;6.70;99.90;;;;;;4918794;29;20216;-71
2021/11/25 19:09:27;;;;;;;3.10;1.53;;;6.80;99.90;;;;;;4919442;29;20213;-70
2021/11/25 19:11:54;;;;;;;4.07;1.50;;;6.80;99.90;;;;;;4918955;29;20210;-71
2021/11/25 19:14:21;;;;;;;6.50;1.53;;;6.90;99.90;;;;;;4919091;29;20212;-71
2021/11/25 19:16:48;;;;;;;6.50;1.50;;;6.90;99.90;;;;;;4919113;29;20209;-71
2021/11/25 19:19:15;;;;;;;4.80;1.67;;;6.80;99.90;;;;;;4917923;29;20209;-71
2021/11/25 19:21:41;;;;;;;3.47;1.80;;;6.80;99.90;;;;;;4918631;29;20243;-71
2021/11/25 19:24:08;;;;;;;6.60;2.20;;;6.70;99.90;;;;;;4918734;29;20872;-71
2021/11/25 19:26:36;;;;;;;3.53;1.63;;;6.50;99.90;;;;;;4918679;29;20217;-72
2021/11/25 19:29:03;;;;;;;6.43;1.80;;;6.50;99.90;;;;;;4918488;29;20210;-71
2021/11/25 19:31:32;;;;;;;2.60;1.50;;;6.40;99.90;;;;;;4918613;29;20221;-71
2021/11/25 19:33:59;;;;;;;10.07;1.80;;;6.40;99.90;;;;;;4917887;29;20223;-71
2021/11/25 19:36:26;;;;;;;4.77;1.87;;;6.40;99.90;;;;;;4911761;29;20216;-72
2021/11/25 19:38:53;;;;;;;8.07;2.20;;;6.40;99.90;;;;;;4918700;29;20214;-71
2021/11/25 19:41:20;;;;;;;2.90;1.43;;;6.30;99.90;;;;;;4923563;29;20701;-71
2021/11/25 19:43:48;;;;;;;3.27;1.90;;;6.20;99.90;;;;;;4924554;29;20893;-71
2021/11/25 19:46:15;;;;;;;2.90;1.60;;;6.30;99.90;;;;;;4927097;29;20206;-71
2021/11/25 19:48:42;;;;;;;5.00;1.87;;;6.20;99.90;;;;;;4929475;29;20232;-71
2021/11/25 19:51:09;;;;;;;5.33;2.20;;;6.10;99.90;;;;;;4921844;29;20238;-70
2021/11/25 19:53:37;;;;;;;4.27;1.77;;;6.00;99.90;;;;;;4918413;29;20324;-71
2021/11/25 19:56:04;;;;;;;6.30;2.10;;;5.90;99.90;;;;;;4921046;29;20249;-71
2021/11/25 19:58:31;;;;;;;2.73;1.87;;;5.90;99.90;;;;;;4923413;29;20209;-72
2021/11/25 20:00:59;;;;;;;3.03;1.90;;;5.80;99.90;;;;;;4916462;29;20264;-71
2021/11/25 20:03:26;;;;;;;3.40;1.97;;;5.80;99.90;;;;;;4913235;29;20731;-71
2021/11/25 20:05:52;;;;;;;4.53;1.83;;;5.70;99.90;;;;;;4925956;29;20838;-72
2021/11/25 20:08:19;;;;;;;4.90;2.00;;;5.80;99.90;;;;;;4918398;29;20208;-71
2021/11/25 20:10:46;;;;;;;6.67;1.87;;;5.80;99.90;;;;;;4936322;29;20233;-71
2021/11/25 20:13:13;;;;;;;4.33;2.30;;;5.80;99.90;;;;;;4934747;29;20709;-71
2021/11/25 20:15:43;;;;;;;5.93;2.60;;;5.70;99.90;;;;;;4929803;29;20292;-71
2021/11/25 20:18:11;;;;;;;7.17;2.77;;;5.80;99.90;;;;;;4917805;29;20213;-71
2021/11/25 20:20:39;;;;;;;6.47;2.50;;;5.80;99.90;;;;;;4917787;29;20218;-71
2021/11/25 20:23:08;;;;;;;6.03;2.60;;;5.90;99.90;;;;;;4917832;29;20238;-71
2021/11/25 20:25:36;;;;;;;6.00;2.60;;;5.90;99.90;;;;;;4918027;29;20702;-71
2021/11/25 20:28:05;;;;;;;5.87;2.47;;;5.90;99.90;;;;;;4917558;29;20209;-71
2021/11/25 20:30:33;;;;;;;11.17;3.13;;;5.90;99.90;;;;;;4917761;29;20620;-71
2021/11/25 20:33:00;;;;;;;5.60;2.63;;;5.90;99.90;;;;;;4917445;29;20225;-71
2021/11/25 20:35:28;;;;;;;5.50;2.70;;;5.80;99.90;;;;;;4917195;29;20301;-71
2021/11/25 20:37:56;;;;;;;7.50;2.60;;;5.80;99.90;;;;;;4917297;29;20210;-71
2021/11/25 20:40:25;;;;;;;7.43;3.10;;;5.90;99.90;;;;;;4917406;29;20671;-72
2021/11/25 20:42:52;;;;;;;7.37;3.47;;;5.90;99.90;;;;;;4917556;29;20246;-72
2021/11/25 20:45:19;;;;;;;4.67;2.57;;;6.00;99.90;;;;;;4917119;29;20221;-72
2021/11/25 20:47:49;;;;;;;8.93;3.07;;;6.10;99.90;;;;;;4917435;29;20224;-72
2021/11/25 20:50:16;;;;;;;10.93;3.53;;;6.10;99.90;;;;;;4916530;29;20241;-71
2021/11/25 20:52:44;;;;;;;9.10;4.03;;;6.10;99.90;;;;;;4916990;29;20232;-71
2021/11/25 20:55:13;;;;;;;12.50;2.73;;;6.00;99.90;;;;;;4916775;29;20210;-72
2021/11/25 20:57:40;;;;;;;6.07;2.87;;;5.90;99.90;;;;;;4916862;29;20738;-72
2021/11/25 21:00:09;;;;;;;9.47;2.73;;;5.80;99.90;;;;;;4917292;29;20210;-71
2021/11/25 21:02:37;;;;;;;9.00;3.30;;;5.80;99.90;;;;;;4917158;29;20332;-73
2021/11/25 21:05:04;;;;;;;8.03;3.00;;;5.80;99.90;;;;;;4916919;29;20579;-72
2021/11/25 21:07:31;;;;;;;8.43;3.13;;;5.80;99.90;;;;;;4916405;29;20249;-72
2021/11/25 21:09:59;;;;;;;7.83;3.10;;;5.70;99.90;;;;;;4916482;29;20666;-72
2021/11/25 21:12:26;;;;;;;6.70;3.40;;;5.70;99.90;;;;;;4916366;29;20240;-72
2021/11/25 21:14:53;;;;;;;12.73;3.57;;;5.50;99.90;;;;;;4916754;29;20216;-72
2021/11/25 21:17:20;;;;;;;5.93;2.77;;;5.40;99.90;;;;;;4916469;29;20205;-72
2021/11/25 21:19:47;;;;;;;9.23;3.63;;;5.40;99.90;;;;;;4916488;29;20223;-72
2021/11/25 21:22:13;;;;;;;9.03;3.53;;;5.50;99.90;;;;;;4916346;29;20324;-72
2021/11/25 21:24:41;;;;;;;9.10;3.27;;;5.50;99.90;;;;;;4916150;29;20209;-72
2021/11/25 21:27:09;;;;;;;9.77;3.40;;;5.50;99.90;;;;;;4916489;29;20316;-72